sensor_id;sensor_type;location;lat;lon;timestamp;pressure;altitude;pressure_sealevel;temperature;humidity
74230;BME280;62589;12.568;99.958;2023-11-21T00:02:25;101086.53;;;30.65;40.76
74230;BME280;62589;12.568;99.958;2023-11-21T00:04:53;101096.91;;;30.68;40.78
74230;BME280;62589;12.568;99.958;2023-11-21T00:07:19;101088.66;;;30.71;41.13
74230;BME280;62589;12.568;99.958;2023-11-21T00:09:47;101085.16;;;30.74;41.05
74230;BME280;62589;12.568;99.958;2023-11-21T00:12:14;101094.34;;;30.79;40.81
74230;BME280;62589;12.568;99.958;2023-11-21T00:14:40;101090.91;;;30.85;40.72
74230;BME280;62589;12.568;99.958;2023-11-21T00:17:07;101099.75;;;30.91;40.53
74230;BME280;62589;12.568;99.958;2023-11-21T00:19:33;101103.03;;;30.96;41.16
74230;BME280;62589;12.568;99.958;2023-11-21T00:22:00;101103.06;;;31.00;40.92
74230;BME280;62589;12.568;99.958;2023-11-21T00:24:27;101104.00;;;31.07;40.72
74230;BME280;62589;12.568;99.958;2023-11-21T00:26:53;101108.94;;;31.14;40.46
74230;BME280;62589;12.568;99.958;2023-11-21T00:29:20;101125.69;;;31.21;40.63
74230;BME280;62589;12.568;99.958;2023-11-21T00:31:46;101127.44;;;31.29;40.17
74230;BME280;62589;12.568;99.958;2023-11-21T00:34:13;101129.91;;;31.34;40.23
74230;BME280;62589;12.568;99.958;2023-11-21T00:36:40;101130.38;;;31.40;40.07
74230;BME280;62589;12.568;99.958;2023-11-21T00:39:06;101130.94;;;31.49;40.24
74230;BME280;62589;12.568;99.958;2023-11-21T00:41:34;101126.31;;;31.57;40.61
74230;BME280;62589;12.568;99.958;2023-11-21T00:44:02;101131.28;;;31.67;40.40
74230;BME280;62589;12.568;99.958;2023-11-21T00:46:28;101126.66;;;31.74;39.97
74230;BME280;62589;12.568;99.958;2023-11-21T00:48:55;101127.53;;;31.82;39.78
74230;BME280;62589;12.568;99.958;2023-11-21T00:51:22;101135.63;;;31.91;40.00
74230;BME280;62589;12.568;99.958;2023-11-21T00:53:48;101132.19;;;32.01;39.93
74230;BME280;62589;12.568;99.958;2023-11-21T00:56:15;101141.44;;;32.08;39.49
74230;BME280;62589;12.568;99.958;2023-11-21T00:58:41;101142.78;;;32.18;39.68
74230;BME280;62589;12.568;99.958;2023-11-21T01:01:09;101140.13;;;32.25;39.16
74230;BME280;62589;12.568;99.958;2023-11-21T01:03:36;101148.19;;;32.34;38.88
74230;BME280;62589;12.568;99.958;2023-11-21T01:06:02;101145.13;;;32.42;38.13
74230;BME280;62589;12.568;99.958;2023-11-21T01:08:30;101146.47;;;32.52;38.18
74230;BME280;62589;12.568;99.958;2023-11-21T01:10:57;101152.94;;;32.60;38.28
74230;BME280;62589;12.568;99.958;2023-11-21T01:13:23;101155.03;;;32.70;38.01
74230;BME280;62589;12.568;99.958;2023-11-21T01:15:55;101159.97;;;32.80;38.14
74230;BME280;62589;12.568;99.958;2023-11-21T01:18:22;101158.06;;;32.88;38.23
74230;BME280;62589;12.568;99.958;2023-11-21T01:20:51;101154.13;;;32.92;37.14
74230;BME280;62589;12.568;99.958;2023-11-21T01:23:19;101164.19;;;33.00;37.55
74230;BME280;62589;12.568;99.958;2023-11-21T01:25:46;101161.88;;;33.09;37.45
74230;BME280;62589;12.568;99.958;2023-11-21T01:28:12;101175.53;;;33.22;37.07
74230;BME280;62589;12.568;99.958;2023-11-21T01:30:39;101170.91;;;33.33;36.78
74230;BME280;62589;12.568;99.958;2023-11-21T01:33:09;101170.56;;;33.38;36.60
74230;BME280;62589;12.568;99.958;2023-11-21T01:35:35;101167.44;;;33.46;36.33
74230;BME280;62589;12.568;99.958;2023-11-21T01:38:02;101165.13;;;33.52;36.49
74230;BME280;62589;12.568;99.958;2023-11-21T01:40:30;101162.41;;;33.59;36.00
74230;BME280;62589;12.568;99.958;2023-11-21T01:42:56;101168.06;;;33.70;35.70
74230;BME280;62589;12.568;99.958;2023-11-21T01:45:24;101164.19;;;33.78;35.71
74230;BME280;62589;12.568;99.958;2023-11-21T01:47:51;101161.06;;;33.83;35.46
74230;BME280;62589;12.568;99.958;2023-11-21T01:50:17;101166.25;;;33.88;34.49
74230;BME280;62589;12.568;99.958;2023-11-21T01:52:45;101159.16;;;33.98;34.61
74230;BME280;62589;12.568;99.958;2023-11-21T01:55:15;101165.22;;;34.07;34.05
74230;BME280;62589;12.568;99.958;2023-11-21T01:57:46;101164.06;;;34.15;34.11
74230;BME280;62589;12.568;99.958;2023-11-21T02:00:13;101159.72;;;34.21;33.98
74230;BME280;62589;12.568;99.958;2023-11-21T02:02:49;101157.03;;;34.32;34.75
74230;BME280;62589;12.568;99.958;2023-11-21T02:05:16;101159.09;;;34.42;34.30
74230;BME280;62589;12.568;99.958;2023-11-21T02:07:44;101157.94;;;34.50;34.22
74230;BME280;62589;12.568;99.958;2023-11-21T02:10:14;101161.16;;;34.59;33.88
74230;BME280;62589;12.568;99.958;2023-11-21T02:12:42;101166.00;;;34.69;34.26
74230;BME280;62589;12.568;99.958;2023-11-21T02:15:15;101164.81;;;34.77;33.56
74230;BME280;62589;12.568;99.958;2023-11-21T02:17:52;101162.06;;;34.81;33.17
74230;BME280;62589;12.568;99.958;2023-11-21T02:20:21;101156.50;;;34.81;32.88
74230;BME280;62589;12.568;99.958;2023-11-21T02:22:55;101156.94;;;34.90;32.80
74230;BME280;62589;12.568;99.958;2023-11-21T02:25:30;101154.53;;;34.92;32.67
74230;BME280;62589;12.568;99.958;2023-11-21T02:27:59;101164.13;;;34.98;33.02
74230;BME280;62589;12.568;99.958;2023-11-21T02:30:27;101170.53;;;35.06;32.92
74230;BME280;62589;12.568;99.958;2023-11-21T02:33:02;101163.44;;;35.30;32.64
74230;BME280;62589;12.568;99.958;2023-11-21T02:35:31;101165.41;;;35.26;32.91
74230;BME280;62589;12.568;99.958;2023-11-21T02:37:58;101159.44;;;35.34;32.73
74230;BME280;62589;12.568;99.958;2023-11-21T02:40:24;101152.66;;;35.39;32.42
74230;BME280;62589;12.568;99.958;2023-11-21T02:42:52;101155.06;;;35.44;32.29
74230;BME280;62589;12.568;99.958;2023-11-21T02:45:20;101157.88;;;35.47;32.10
74230;BME280;62589;12.568;99.958;2023-11-21T02:47:47;101151.50;;;35.54;31.99
74230;BME280;62589;12.568;99.958;2023-11-21T02:50:15;101150.69;;;35.61;32.32
74230;BME280;62589;12.568;99.958;2023-11-21T02:52:42;101150.69;;;35.64;31.66
74230;BME280;62589;12.568;99.958;2023-11-21T02:55:08;101144.72;;;35.69;31.69
74230;BME280;62589;12.568;99.958;2023-11-21T02:57:35;101149.13;;;35.70;31.85
74230;BME280;62589;12.568;99.958;2023-11-21T03:00:02;101152.31;;;35.72;32.27
74230;BME280;62589;12.568;99.958;2023-11-21T03:02:28;101147.91;;;35.75;32.23
74230;BME280;62589;12.568;99.958;2023-11-21T03:04:55;101150.31;;;35.73;32.36
74230;BME280;62589;12.568;99.958;2023-11-21T03:07:21;101152.72;;;35.78;32.25
74230;BME280;62589;12.568;99.958;2023-11-21T03:09:48;101155.09;;;35.79;32.34
74230;BME280;62589;12.568;99.958;2023-11-21T03:12:14;101161.91;;;35.89;32.42
74230;BME280;62589;12.568;99.958;2023-11-21T03:14:41;101143.09;;;35.97;32.27
74230;BME280;62589;12.568;99.958;2023-11-21T03:17:08;101147.91;;;36.03;32.59
74230;BME280;62589;12.568;99.958;2023-11-21T03:19:34;101141.09;;;36.11;32.86
74230;BME280;62589;12.568;99.958;2023-11-21T03:22:01;101131.88;;;36.18;32.74
74230;BME280;62589;12.568;99.958;2023-11-21T03:24:27;101131.09;;;36.25;32.90
74230;BME280;62589;12.568;99.958;2023-11-21T03:26:54;101137.09;;;36.30;32.55
74230;BME280;62589;12.568;99.958;2023-11-21T03:29:20;101131.91;;;36.29;32.61
74230;BME280;62589;12.568;99.958;2023-11-21T03:31:47;101125.91;;;36.37;32.85
74230;BME280;62589;12.568;99.958;2023-11-21T03:34:24;101123.88;;;36.41;32.78
74230;BME280;62589;12.568;99.958;2023-11-21T03:36:51;101125.03;;;36.47;32.80
74230;BME280;62589;12.568;99.958;2023-11-21T03:39:22;101111.84;;;36.52;32.70
74230;BME280;62589;12.568;99.958;2023-11-21T03:41:49;101107.44;;;36.58;32.79
74230;BME280;62589;12.568;99.958;2023-11-21T03:44:15;101107.81;;;36.60;33.09
74230;BME280;62589;12.568;99.958;2023-11-21T03:46:41;101101.81;;;36.61;33.39
74230;BME280;62589;12.568;99.958;2023-11-21T03:49:08;101102.22;;;36.60;33.11
74230;BME280;62589;12.568;99.958;2023-11-21T03:51:34;101099.38;;;36.67;32.74
74230;BME280;62589;12.568;99.958;2023-11-21T03:54:01;101094.19;;;36.69;32.99
74230;BME280;62589;12.568;99.958;2023-11-21T03:56:27;101093.38;;;36.75;33.45
74230;BME280;62589;12.568;99.958;2023-11-21T03:58:54;101091.78;;;36.71;33.15
74230;BME280;62589;12.568;99.958;2023-11-21T04:01:24;101085.78;;;36.76;33.40
74230;BME280;62589;12.568;99.958;2023-11-21T04:03:51;101085.72;;;36.87;33.41
74230;BME280;62589;12.568;99.958;2023-11-21T04:06:17;101086.09;;;36.89;33.77
74230;BME280;62589;12.568;99.958;2023-11-21T04:08:44;101080.47;;;36.96;33.36
74230;BME280;62589;12.568;99.958;2023-11-21T04:11:12;101085.59;;;37.01;33.75
74230;BME280;62589;12.568;99.958;2023-11-21T04:13:39;101078.41;;;37.03;33.31
74230;BME280;62589;12.568;99.958;2023-11-21T04:16:07;101061.16;;;37.08;33.50
74230;BME280;62589;12.568;99.958;2023-11-21T04:18:36;101064.75;;;37.12;33.75
74230;BME280;62589;12.568;99.958;2023-11-21T04:21:02;101068.75;;;37.19;33.34
74230;BME280;62589;12.568;99.958;2023-11-21T04:23:30;101055.91;;;37.21;33.65
74230;BME280;62589;12.568;99.958;2023-11-21T04:25:57;101049.84;;;37.26;33.66
74230;BME280;62589;12.568;99.958;2023-11-21T04:28:25;101049.44;;;37.28;33.20
74230;BME280;62589;12.568;99.958;2023-11-21T04:30:51;101050.19;;;37.35;33.50
74230;BME280;62589;12.568;99.958;2023-11-21T04:33:18;101043.72;;;37.42;34.03
74230;BME280;62589;12.568;99.958;2023-11-21T04:35:44;101040.91;;;37.42;33.52
74230;BME280;62589;12.568;99.958;2023-11-21T04:38:11;101025.66;;;37.46;33.82
74230;BME280;62589;12.568;99.958;2023-11-21T04:40:37;101029.25;;;37.50;32.96
74230;BME280;62589;12.568;99.958;2023-11-21T04:43:04;101016.41;;;37.53;33.63
74230;BME280;62589;12.568;99.958;2023-11-21T04:45:31;101014.38;;;37.57;33.64
74230;BME280;62589;12.568;99.958;2023-11-21T04:47:58;101011.16;;;37.59;33.54
74230;BME280;62589;12.568;99.958;2023-11-21T04:50:24;101002.00;;;37.55;33.33
74230;BME280;62589;12.568;99.958;2023-11-21T04:52:53;100993.06;;;37.63;33.46
74230;BME280;62589;12.568;99.958;2023-11-21T04:55:19;100985.13;;;37.62;33.60
74230;BME280;62589;12.568;99.958;2023-11-21T04:57:46;100976.69;;;37.65;33.38
74230;BME280;62589;12.568;99.958;2023-11-21T05:00:13;100965.06;;;37.67;33.58
74230;BME280;62589;12.568;99.958;2023-11-21T05:02:42;100960.25;;;37.64;33.38
74230;BME280;62589;12.568;99.958;2023-11-21T05:05:10;100961.00;;;37.71;33.84
74230;BME280;62589;12.568;99.958;2023-11-21T05:07:36;100954.59;;;37.71;33.48
74230;BME280;62589;12.568;99.958;2023-11-21T05:10:05;100943.78;;;37.73;33.73
74230;BME280;62589;12.568;99.958;2023-11-21T05:12:34;100936.94;;;37.77;33.78
74230;BME280;62589;12.568;99.958;2023-11-21T05:15:04;100932.53;;;37.76;33.22
74230;BME280;62589;12.568;99.958;2023-11-21T05:17:38;100927.31;;;37.78;33.25
74230;BME280;62589;12.568;99.958;2023-11-21T05:20:08;100928.09;;;37.79;33.14
74230;BME280;62589;12.568;99.958;2023-11-21T05:22:36;100918.41;;;37.83;33.15
74230;BME280;62589;12.568;99.958;2023-11-21T05:25:03;100914.06;;;37.82;33.45
74230;BME280;62589;12.568;99.958;2023-11-21T05:27:30;100907.69;;;37.78;33.87
74230;BME280;62589;12.568;99.958;2023-11-21T05:30:03;100901.59;;;37.83;33.79
74230;BME280;62589;12.568;99.958;2023-11-21T05:32:35;100891.16;;;37.88;34.05
74230;BME280;62589;12.568;99.958;2023-11-21T05:35:01;100889.13;;;37.88;33.89
74230;BME280;62589;12.568;99.958;2023-11-21T05:37:28;100889.56;;;37.87;34.15
74230;BME280;62589;12.568;99.958;2023-11-21T05:39:55;100889.94;;;37.89;34.36
74230;BME280;62589;12.568;99.958;2023-11-21T05:42:23;100885.91;;;37.90;34.09
74230;BME280;62589;12.568;99.958;2023-11-21T05:44:49;100879.09;;;37.91;33.59
74230;BME280;62589;12.568;99.958;2023-11-21T05:47:16;100880.69;;;37.92;33.89
74230;BME280;62589;12.568;99.958;2023-11-21T05:49:43;100875.03;;;37.95;34.30
74230;BME280;62589;12.568;99.958;2023-11-21T05:52:11;100874.56;;;38.00;35.08
74230;BME280;62589;12.568;99.958;2023-11-21T05:54:37;100864.88;;;38.05;34.62
74230;BME280;62589;12.568;99.958;2023-11-21T05:57:04;100856.13;;;38.03;34.35
74230;BME280;62589;12.568;99.958;2023-11-21T05:59:30;100841.31;;;38.02;34.81
74230;BME280;62589;12.568;99.958;2023-11-21T06:01:57;100845.31;;;38.01;34.77
74230;BME280;62589;12.568;99.958;2023-11-21T06:04:24;100839.72;;;38.01;33.95
74230;BME280;62589;12.568;99.958;2023-11-21T06:06:52;100838.13;;;38.00;34.15
74230;BME280;62589;12.568;99.958;2023-11-21T06:09:20;100834.91;;;38.02;34.45
74230;BME280;62589;12.568;99.958;2023-11-21T06:11:46;100830.50;;;38.01;35.04
74230;BME280;62589;12.568;99.958;2023-11-21T06:14:13;100824.13;;;38.00;34.59
74230;BME280;62589;12.568;99.958;2023-11-21T06:16:40;100818.00;;;38.05;34.73
74230;BME280;62589;12.568;99.958;2023-11-21T06:19:07;100805.22;;;38.04;34.46
74230;BME280;62589;12.568;99.958;2023-11-21T06:21:33;100810.81;;;38.04;34.79
74230;BME280;62589;12.568;99.958;2023-11-21T06:24:01;100801.63;;;38.04;34.50
74230;BME280;62589;12.568;99.958;2023-11-21T06:26:27;100796.47;;;38.02;34.37
74230;BME280;62589;12.568;99.958;2023-11-21T06:28:54;100790.41;;;38.04;34.68
74230;BME280;62589;12.568;99.958;2023-11-21T06:31:20;100777.97;;;38.05;34.48
74230;BME280;62589;12.568;99.958;2023-11-21T06:33:47;100773.25;;;38.02;34.45
74230;BME280;62589;12.568;99.958;2023-11-21T06:36:14;100758.81;;;38.03;34.48
74230;BME280;62589;12.568;99.958;2023-11-21T06:38:40;100773.94;;;38.06;34.21
74230;BME280;62589;12.568;99.958;2023-11-21T06:41:07;100756.75;;;38.04;34.27
74230;BME280;62589;12.568;99.958;2023-11-21T06:43:34;100758.44;;;38.01;34.30
74230;BME280;62589;12.568;99.958;2023-11-21T06:46:00;100746.06;;;37.99;33.24
74230;BME280;62589;12.568;99.958;2023-11-21T06:48:27;100746.84;;;37.99;33.35
74230;BME280;62589;12.568;99.958;2023-11-21T06:50:53;100749.69;;;37.96;33.60
74230;BME280;62589;12.568;99.958;2023-11-21T06:53:20;100742.13;;;37.93;34.34
74230;BME280;62589;12.568;99.958;2023-11-21T06:55:46;100744.56;;;37.91;34.20
74230;BME280;62589;12.568;99.958;2023-11-21T06:58:13;100744.63;;;37.87;32.50
74230;BME280;62589;12.568;99.958;2023-11-21T07:00:40;100743.84;;;37.87;33.13
74230;BME280;62589;12.568;99.958;2023-11-21T07:03:12;100739.03;;;37.87;33.71
74230;BME280;62589;12.568;99.958;2023-11-21T07:05:38;100738.22;;;37.87;33.06
74230;BME280;62589;12.568;99.958;2023-11-21T07:08:05;100732.63;;;37.87;32.93
74230;BME280;62589;12.568;99.958;2023-11-21T07:10:33;100733.78;;;37.89;33.41
74230;BME280;62589;12.568;99.958;2023-11-21T07:13:00;100736.16;;;37.91;33.75
74230;BME280;62589;12.568;99.958;2023-11-21T07:15:27;100738.19;;;37.90;33.95
74230;BME280;62589;12.568;99.958;2023-11-21T07:17:54;100729.78;;;37.90;34.70
74230;BME280;62589;12.568;99.958;2023-11-21T07:20:20;100722.22;;;37.87;33.23
74230;BME280;62589;12.568;99.958;2023-11-21T07:22:47;100720.63;;;37.86;33.37
74230;BME280;62589;12.568;99.958;2023-11-21T07:25:13;100711.78;;;37.88;33.11
74230;BME280;62589;12.568;99.958;2023-11-21T07:27:40;100718.97;;;37.89;33.85
74230;BME280;62589;12.568;99.958;2023-11-21T07:30:07;100701.38;;;37.88;34.41
74230;BME280;62589;12.568;99.958;2023-11-21T07:32:35;100703.38;;;37.88;33.57
74230;BME280;62589;12.568;99.958;2023-11-21T07:35:05;100706.19;;;37.88;33.19
74230;BME280;62589;12.568;99.958;2023-11-21T07:37:33;100701.38;;;37.88;33.95
74230;BME280;62589;12.568;99.958;2023-11-21T07:40:00;100686.19;;;37.86;33.37
74230;BME280;62589;12.568;99.958;2023-11-21T07:42:26;100689.41;;;37.84;32.65
74230;BME280;62589;12.568;99.958;2023-11-21T07:44:55;100689.88;;;37.82;32.53
74230;BME280;62589;12.568;99.958;2023-11-21T07:47:22;100680.72;;;37.78;32.59
74230;BME280;62589;12.568;99.958;2023-11-21T07:49:49;100679.50;;;37.79;32.85
74230;BME280;62589;12.568;99.958;2023-11-21T07:52:16;100687.19;;;37.75;32.68
74230;BME280;62589;12.568;99.958;2023-11-21T07:54:42;100680.41;;;37.73;32.37
74230;BME280;62589;12.568;99.958;2023-11-21T07:57:09;100683.31;;;37.66;31.88
74230;BME280;62589;12.568;99.958;2023-11-21T07:59:40;100675.72;;;37.66;31.31
74230;BME280;62589;12.568;99.958;2023-11-21T08:02:07;100672.94;;;37.63;31.18
74230;BME280;62589;12.568;99.958;2023-11-21T08:04:33;100671.72;;;37.64;31.30
74230;BME280;62589;12.568;99.958;2023-11-21T08:07:01;100673.84;;;37.56;31.81
74230;BME280;62589;12.568;99.958;2023-11-21T08:09:29;100672.25;;;37.55;31.70
74230;BME280;62589;12.568;99.958;2023-11-21T08:11:56;100669.13;;;37.49;31.73
74230;BME280;62589;12.568;99.958;2023-11-21T08:14:23;100672.34;;;37.48;31.95
74230;BME280;62589;12.568;99.958;2023-11-21T08:16:51;100677.97;;;37.48;32.83
74230;BME280;62589;12.568;99.958;2023-11-21T08:19:18;100671.63;;;37.44;33.06
74230;BME280;62589;12.568;99.958;2023-11-21T08:21:44;100670.41;;;37.45;32.92
74230;BME280;62589;12.568;99.958;2023-11-21T08:24:11;100674.91;;;37.39;32.37
74230;BME280;62589;12.568;99.958;2023-11-21T08:26:38;100673.31;;;37.38;32.20
74230;BME280;62589;12.568;99.958;2023-11-21T08:29:04;100676.53;;;37.36;32.88
74230;BME280;62589;12.568;99.958;2023-11-21T08:31:33;100690.56;;;37.36;33.12
74230;BME280;62589;12.568;99.958;2023-11-21T08:33:59;100680.13;;;37.37;33.49
74230;BME280;62589;12.568;99.958;2023-11-21T08:36:28;100691.34;;;37.37;33.67
74230;BME280;62589;12.568;99.958;2023-11-21T08:38:57;100686.16;;;37.35;33.43
74230;BME280;62589;12.568;99.958;2023-11-21T08:41:23;100685.00;;;37.33;33.33
74230;BME280;62589;12.568;99.958;2023-11-21T08:43:50;100682.19;;;37.33;32.99
74230;BME280;62589;12.568;99.958;2023-11-21T08:46:20;100683.44;;;37.28;32.45
74230;BME280;62589;12.568;99.958;2023-11-21T08:48:46;100692.28;;;37.27;32.84
74230;BME280;62589;12.568;99.958;2023-11-21T08:51:13;100693.53;;;37.22;32.66
74230;BME280;62589;12.568;99.958;2023-11-21T08:53:40;100681.19;;;37.20;32.77
74230;BME280;62589;12.568;99.958;2023-11-21T08:56:07;100699.19;;;37.19;33.17
74230;BME280;62589;12.568;99.958;2023-11-21T08:58:35;100693.59;;;37.19;33.28
74230;BME280;62589;12.568;99.958;2023-11-21T09:01:04;100690.81;;;37.15;32.67
74230;BME280;62589;12.568;99.958;2023-11-21T09:03:30;100696.84;;;37.13;32.41
74230;BME280;62589;12.568;99.958;2023-11-21T09:05:59;100692.06;;;37.10;32.85
74230;BME280;62589;12.568;99.958;2023-11-21T09:08:26;100685.31;;;37.08;32.44
74230;BME280;62589;12.568;99.958;2023-11-21T09:10:55;100686.94;;;37.05;32.99
74230;BME280;62589;12.568;99.958;2023-11-21T09:13:21;100686.56;;;37.03;32.91
74230;BME280;62589;12.568;99.958;2023-11-21T09:15:49;100692.56;;;37.02;33.17
74230;BME280;62589;12.568;99.958;2023-11-21T09:18:15;100699.03;;;36.99;33.25
74230;BME280;62589;12.568;99.958;2023-11-21T09:20:42;100699.06;;;36.95;32.98
74230;BME280;62589;12.568;99.958;2023-11-21T09:23:10;100693.88;;;36.94;33.05
74230;BME280;62589;12.568;99.958;2023-11-21T09:25:36;100698.72;;;36.90;33.25
74230;BME280;62589;12.568;99.958;2023-11-21T09:28:05;100709.16;;;36.86;33.26
74230;BME280;62589;12.568;99.958;2023-11-21T09:30:35;100711.59;;;36.83;33.14
74230;BME280;62589;12.568;99.958;2023-11-21T09:33:02;100705.69;;;36.78;33.17
74230;BME280;62589;12.568;99.958;2023-11-21T09:35:28;100706.88;;;36.77;33.10
74230;BME280;62589;12.568;99.958;2023-11-21T09:37:55;100702.91;;;36.74;32.96
74230;BME280;62589;12.568;99.958;2023-11-21T09:40:22;100705.72;;;36.71;33.09
74230;BME280;62589;12.568;99.958;2023-11-21T09:42:56;100699.75;;;36.69;32.97
74230;BME280;62589;12.568;99.958;2023-11-21T09:45:28;100700.56;;;36.66;33.39
74230;BME280;62589;12.568;99.958;2023-11-21T09:47:57;100698.19;;;36.64;33.58
74230;BME280;62589;12.568;99.958;2023-11-21T09:50:24;100696.63;;;36.60;33.84
74230;BME280;62589;12.568;99.958;2023-11-21T09:53:18;100702.22;;;36.60;34.17
74230;BME280;62589;12.568;99.958;2023-11-21T09:55:53;100711.91;;;36.55;34.15
74230;BME280;62589;12.568;99.958;2023-11-21T09:58:20;100706.75;;;36.50;34.11
74230;BME280;62589;12.568;99.958;2023-11-21T10:00:55;100717.97;;;36.46;34.55
74230;BME280;62589;12.568;99.958;2023-11-21T10:03:23;100723.00;;;36.59;34.21
74230;BME280;62589;12.568;99.958;2023-11-21T10:05:51;100725.16;;;36.44;34.13
74230;BME280;62589;12.568;99.958;2023-11-21T10:08:20;100730.41;;;36.38;34.22
74230;BME280;62589;12.568;99.958;2023-11-21T10:10:53;100730.47;;;36.35;34.32
74230;BME280;62589;12.568;99.958;2023-11-21T10:13:19;100732.88;;;36.33;34.41
74230;BME280;62589;12.568;99.958;2023-11-21T10:15:50;100739.72;;;36.28;34.34
74230;BME280;62589;12.568;99.958;2023-11-21T10:18:17;100733.72;;;36.26;34.41
74230;BME280;62589;12.568;99.958;2023-11-21T10:20:44;100739.31;;;36.26;34.60
74230;BME280;62589;12.568;99.958;2023-11-21T10:23:18;100740.03;;;36.37;34.53
74230;BME280;62589;12.568;99.958;2023-11-21T10:25:45;100751.28;;;36.23;34.62
74230;BME280;62589;12.568;99.958;2023-11-21T10:28:11;100753.72;;;36.21;34.67
74230;BME280;62589;12.568;99.958;2023-11-21T10:30:38;100752.94;;;36.17;34.97
74230;BME280;62589;12.568;99.958;2023-11-21T10:33:07;100760.13;;;36.18;35.10
74230;BME280;62589;12.568;99.958;2023-11-21T10:35:47;100753.78;;;36.14;35.49
74230;BME280;62589;12.568;99.958;2023-11-21T10:38:21;100761.00;;;36.11;35.80
74230;BME280;62589;12.568;99.958;2023-11-21T10:40:50;100768.19;;;36.09;36.25
74230;BME280;62589;12.568;99.958;2023-11-21T10:43:17;100764.25;;;36.03;36.30
74230;BME280;62589;12.568;99.958;2023-11-21T10:45:44;100764.66;;;36.01;36.52
74230;BME280;62589;12.568;99.958;2023-11-21T10:48:14;100764.72;;;35.94;36.45
74230;BME280;62589;12.568;99.958;2023-11-21T10:50:42;100756.34;;;35.91;36.63
74230;BME280;62589;12.568;99.958;2023-11-21T10:53:09;100765.16;;;35.86;36.90
74230;BME280;62589;12.568;99.958;2023-11-21T10:55:37;100764.38;;;35.81;37.63
74230;BME280;62589;12.568;99.958;2023-11-21T10:58:05;100766.41;;;35.77;38.19
74230;BME280;62589;12.568;99.958;2023-11-21T11:00:33;100773.63;;;35.71;38.44
74230;BME280;62589;12.568;99.958;2023-11-21T11:03:00;100773.22;;;35.69;38.54
74230;BME280;62589;12.568;99.958;2023-11-21T11:05:28;100777.22;;;35.65;38.50
74230;BME280;62589;12.568;99.958;2023-11-21T11:08:05;100783.66;;;35.58;38.47
74230;BME280;62589;12.568;99.958;2023-11-21T11:10:33;100785.69;;;35.54;38.81
74230;BME280;62589;12.568;99.958;2023-11-21T11:13:00;100794.47;;;35.49;39.48
74230;BME280;62589;12.568;99.958;2023-11-21T11:15:28;100794.09;;;35.43;39.92
74230;BME280;62589;12.568;99.958;2023-11-21T11:17:55;100794.13;;;35.40;39.84
74230;BME280;62589;12.568;99.958;2023-11-21T11:20:26;100798.50;;;35.34;40.04
74230;BME280;62589;12.568;99.958;2023-11-21T11:26:16;100801.34;;;35.30;39.87
74230;BME280;62589;12.568;99.958;2023-11-21T11:29:08;100804.91;;;35.24;39.77
74230;BME280;62589;12.568;99.958;2023-11-21T11:34:58;100806.53;;;35.18;39.67
74230;BME280;62589;12.568;99.958;2023-11-21T11:37:28;100811.75;;;35.12;39.98
74230;BME280;62589;12.568;99.958;2023-11-21T11:39:55;100818.94;;;35.09;39.88
74230;BME280;62589;12.568;99.958;2023-11-21T11:42:22;100819.72;;;35.03;39.97
74230;BME280;62589;12.568;99.958;2023-11-21T11:44:51;100826.50;;;35.02;40.12
74230;BME280;62589;12.568;99.958;2023-11-21T11:47:37;100820.13;;;35.01;40.67
74230;BME280;62589;12.568;99.958;2023-11-21T11:50:12;100821.72;;;34.95;41.23
74230;BME280;62589;12.568;99.958;2023-11-21T11:52:44;100823.34;;;34.89;40.83
74230;BME280;62589;12.568;99.958;2023-11-21T11:55:12;100830.53;;;34.83;40.82
74230;BME280;62589;12.568;99.958;2023-11-21T11:57:41;100833.72;;;34.82;40.78
74230;BME280;62589;12.568;99.958;2023-11-21T12:00:18;100832.53;;;34.79;40.80
74230;BME280;62589;12.568;99.958;2023-11-21T12:02:47;100838.88;;;34.76;41.29
74230;BME280;62589;12.568;99.958;2023-11-21T12:05:16;100844.03;;;34.74;41.17
74230;BME280;62589;12.568;99.958;2023-11-21T12:07:54;100844.88;;;34.71;40.78
74230;BME280;62589;12.568;99.958;2023-11-21T12:10:23;100842.06;;;34.64;40.53
74230;BME280;62589;12.568;99.958;2023-11-21T12:12:55;100842.88;;;34.61;40.98
74230;BME280;62589;12.568;99.958;2023-11-21T12:15:23;100846.06;;;34.59;40.28
74230;BME280;62589;12.568;99.958;2023-11-21T12:17:50;100854.81;;;34.58;40.68
74230;BME280;62589;12.568;99.958;2023-11-21T12:20:21;100861.19;;;34.51;41.10
74230;BME280;62589;12.568;99.958;2023-11-21T12:22:56;100857.59;;;34.51;41.07
74230;BME280;62589;12.568;99.958;2023-11-21T12:25:28;100864.78;;;34.48;41.34
74230;BME280;62589;12.568;99.958;2023-11-21T12:28:03;100872.75;;;34.46;41.21
74230;BME280;62589;12.568;99.958;2023-11-21T12:30:30;100870.34;;;34.44;41.81
74230;BME280;62589;12.568;99.958;2023-11-21T12:32:59;100881.09;;;34.42;41.49
74230;BME280;62589;12.568;99.958;2023-11-21T12:35:35;100878.31;;;34.42;42.44
74230;BME280;62589;12.568;99.958;2023-11-21T12:38:03;100887.06;;;34.41;41.86
74230;BME280;62589;12.568;99.958;2023-11-21T12:40:30;100898.22;;;34.37;41.50
74230;BME280;62589;12.568;99.958;2023-11-21T12:42:58;100898.59;;;34.36;41.57
74230;BME280;62589;12.568;99.958;2023-11-21T12:45:26;100906.56;;;34.34;41.19
74230;BME280;62589;12.568;99.958;2023-11-21T12:48:13;100904.97;;;34.36;41.27
74230;BME280;62589;12.568;99.958;2023-11-21T12:50:41;100910.13;;;34.31;41.05
74230;BME280;62589;12.568;99.958;2023-11-21T12:53:12;100911.75;;;34.28;41.39